createdAt,value
2022-11-04T00:02:04.335Z,11.50
2022-11-04T00:04:31.167Z,11.50
2022-11-04T00:06:58.216Z,11.30
2022-11-04T00:09:29.840Z,11.30
2022-11-04T00:12:15.900Z,11.30
2022-11-04T00:14:42.767Z,11.30
2022-11-04T00:17:21.974Z,11.40
2022-11-04T00:20:12.437Z,11.30
2022-11-04T00:23:00.512Z,11.20
2022-11-04T00:25:45.579Z,11.20
2022-11-04T00:28:36.380Z,11.20
2022-11-04T00:31:26.847Z,11.20
2022-11-04T00:33:57.275Z,11.20
2022-11-04T00:36:25.599Z,11.30
2022-11-04T00:38:52.561Z,11.30
2022-11-04T00:41:29.298Z,11.30
2022-11-04T00:43:59.295Z,11.30
2022-11-04T00:46:28.164Z,11.20
2022-11-04T00:48:54.917Z,11.20
2022-11-04T00:51:21.790Z,11.30
2022-11-04T00:53:49.290Z,11.20
2022-11-04T00:56:16.100Z,11.20
2022-11-04T00:58:42.585Z,11.10
2022-11-04T01:01:12.046Z,11.10
2022-11-04T01:03:39.271Z,11.10
2022-11-04T01:06:06.225Z,11.20
2022-11-04T01:08:32.744Z,11.20
2022-11-04T01:11:08.248Z,11.30
2022-11-04T01:13:35.430Z,11.30
2022-11-04T01:16:05.502Z,11.20
2022-11-04T01:18:32.299Z,11.20
2022-11-04T01:21:04.120Z,11.30
2022-11-04T01:23:33.317Z,11.30
2022-11-04T01:25:59.820Z,11.40
2022-11-04T01:28:26.337Z,11.40
2022-11-04T01:30:52.795Z,11.40
2022-11-04T01:33:19.270Z,11.40
2022-11-04T01:35:45.785Z,11.50
2022-11-04T01:38:12.321Z,11.50
2022-11-04T01:40:40.489Z,11.40
2022-11-04T01:43:17.991Z,11.40
2022-11-04T01:46:27.184Z,11.40
2022-11-04T01:49:14.142Z,11.40
2022-11-04T01:51:45.831Z,11.50
2022-11-04T01:54:13.356Z,11.50
2022-11-04T01:56:42.389Z,11.50
2022-11-04T01:59:20.032Z,11.50
2022-11-04T02:01:47.160Z,11.50
2022-11-04T02:04:26.182Z,11.50
2022-11-04T02:06:57.660Z,11.50
2022-11-04T02:09:28.081Z,11.50
2022-11-04T02:12:13.328Z,11.50
2022-11-04T02:14:41.383Z,11.40
2022-11-04T02:24:14.077Z,11.40
2022-11-04T02:29:15.150Z,11.30
2022-11-04T02:35:10.116Z,11.50
2022-11-04T02:39:13.925Z,11.30
2022-11-04T02:43:13.122Z,11.50
2022-11-04T02:45:51.395Z,11.60
2022-11-04T02:49:56.144Z,11.50
2022-11-04T02:52:38.620Z,11.50
2022-11-04T02:55:18.685Z,11.60
2022-11-04T02:57:47.837Z,11.50
2022-11-04T03:00:15.289Z,11.40
2022-11-04T03:02:53.489Z,11.50
2022-11-04T03:05:27.471Z,11.40
2022-11-04T03:08:00.974Z,11.40
2022-11-04T03:10:43.074Z,11.50
2022-11-04T03:13:45.957Z,11.50
2022-11-04T03:16:22.760Z,11.50
2022-11-04T03:19:15.718Z,11.50
2022-11-04T03:21:54.107Z,11.50
2022-11-04T03:24:20.806Z,11.50
2022-11-04T03:27:12.467Z,11.40
2022-11-04T03:30:10.908Z,11.50
2022-11-04T03:35:06.349Z,11.50
2022-11-04T03:37:33.920Z,11.40
2022-11-04T03:40:01.993Z,11.50
2022-11-04T03:42:31.996Z,11.50
2022-11-04T03:44:59.679Z,11.50
2022-11-04T03:47:29.603Z,11.70
2022-11-04T03:50:27.217Z,11.60
2022-11-04T03:52:54.365Z,11.50
2022-11-04T03:55:27.686Z,11.50
2022-11-04T03:58:07.986Z,11.50
2022-11-04T04:00:49.444Z,11.50
2022-11-04T04:03:26.405Z,11.60
2022-11-04T04:06:10.060Z,11.70
2022-11-04T04:08:55.282Z,11.90
2022-11-04T04:11:42.362Z,11.70
2022-11-04T04:15:20.723Z,11.60
2022-11-04T04:17:55.611Z,11.60
2022-11-04T04:20:28.529Z,11.60
2022-11-04T04:23:37.172Z,11.50
2022-11-04T04:26:26.710Z,11.50
2022-11-04T04:28:56.476Z,11.50
2022-11-04T04:31:44.751Z,11.60
2022-11-04T04:34:11.597Z,11.70
2022-11-04T04:37:00.751Z,11.70
2022-11-04T04:40:52.173Z,11.70
2022-11-04T04:43:37.201Z,11.70
2022-11-04T04:46:03.725Z,11.80
2022-11-04T04:48:30.517Z,11.70
2022-11-04T04:51:01.280Z,11.80
2022-11-04T04:53:27.782Z,11.70
2022-11-04T04:55:54.284Z,11.60
2022-11-04T04:58:20.853Z,11.70
2022-11-04T05:00:47.329Z,11.70
2022-11-04T05:03:13.798Z,11.70
2022-11-04T05:05:40.297Z,11.70
2022-11-04T05:08:08.377Z,11.80
2022-11-04T05:10:35.445Z,11.80
2022-11-04T05:13:20.158Z,11.80
2022-11-04T05:15:46.662Z,11.80
2022-11-04T05:18:13.121Z,11.80
2022-11-04T05:20:39.639Z,11.90
2022-11-04T05:23:07.272Z,11.90
2022-11-04T05:25:33.937Z,11.90
2022-11-04T05:28:02.134Z,11.80
2022-11-04T05:30:28.881Z,11.80
2022-11-04T05:32:58.565Z,11.80
2022-11-04T05:35:28.221Z,11.80
2022-11-04T05:37:57.534Z,11.90
2022-11-04T05:40:24.335Z,11.90
2022-11-04T05:42:50.822Z,11.90
2022-11-04T05:45:17.557Z,12.00
2022-11-04T05:47:44.069Z,12.00
2022-11-04T05:50:10.542Z,12.10
2022-11-04T05:52:37.051Z,12.00
2022-11-04T05:55:03.854Z,12.00
2022-11-04T05:57:30.334Z,12.00
2022-11-04T05:59:56.810Z,11.90
2022-11-04T06:02:23.526Z,11.90
2022-11-04T06:04:50.090Z,12.00
2022-11-04T06:07:16.574Z,12.00
2022-11-04T06:09:43.047Z,12.10
2022-11-04T06:12:16.076Z,12.20
2022-11-04T06:14:45.520Z,12.10
2022-11-04T06:17:21.457Z,12.00
2022-11-04T06:19:48.618Z,12.00
2022-11-04T06:22:18.687Z,12.10
2022-11-04T06:24:45.708Z,12.00
2022-11-04T06:27:12.616Z,12.00
2022-11-04T06:29:40.397Z,12.00
2022-11-04T06:32:13.218Z,12.00
2022-11-04T06:34:40.126Z,12.10
2022-11-04T06:37:07.441Z,12.20
2022-11-04T06:39:33.952Z,12.10
2022-11-04T06:42:02.566Z,12.10
2022-11-04T06:44:29.843Z,12.10
2022-11-04T06:46:56.427Z,12.10
2022-11-04T06:49:23.238Z,12.10
2022-11-04T06:51:51.217Z,12.10
2022-11-04T06:54:18.191Z,12.00
2022-11-04T06:56:45.310Z,11.90
2022-11-04T06:59:18.626Z,12.00
2022-11-04T07:01:45.645Z,12.10
2022-11-04T07:04:12.257Z,12.10
2022-11-04T07:06:44.156Z,12.10
2022-11-04T07:09:14.398Z,12.10
2022-11-04T07:11:42.721Z,12.10
2022-11-04T07:14:09.915Z,12.20
2022-11-04T07:16:36.704Z,12.20
2022-11-04T07:19:04.114Z,12.20
2022-11-04T07:21:30.872Z,12.20
2022-11-04T07:23:57.978Z,12.30
2022-11-04T07:26:24.487Z,12.40
2022-11-04T07:28:51.201Z,12.50
2022-11-04T07:31:17.858Z,12.50
2022-11-04T07:33:49.028Z,12.50
2022-11-04T07:36:16.439Z,12.40
2022-11-04T07:38:43.132Z,12.40
2022-11-04T07:41:13.987Z,12.40
2022-11-04T07:43:40.501Z,12.40
2022-11-04T07:46:11.650Z,12.50
2022-11-04T07:48:38.814Z,12.50
2022-11-04T07:51:08.334Z,12.50
2022-11-04T07:53:35.163Z,12.50
2022-11-04T07:56:07.827Z,12.50
2022-11-04T07:58:34.623Z,12.50
2022-11-04T08:01:06.209Z,12.50
2022-11-04T08:03:36.297Z,12.50
2022-11-04T08:06:08.097Z,12.50
2022-11-04T08:08:35.245Z,12.60
2022-11-04T08:11:15.868Z,12.60
2022-11-04T08:13:44.753Z,12.70
2022-11-04T08:16:17.751Z,12.80
2022-11-04T08:18:45.415Z,12.90
2022-11-04T08:21:12.327Z,12.90
2022-11-04T08:23:39.522Z,12.90
2022-11-04T08:26:11.223Z,12.80
2022-11-04T08:28:38.082Z,12.80
2022-11-04T08:31:10.157Z,12.80
2022-11-04T08:33:36.890Z,12.90
2022-11-04T08:36:08.661Z,12.90
2022-11-04T08:38:36.259Z,13.00
2022-11-04T08:41:06.703Z,13.10
2022-11-04T08:43:34.112Z,13.10
2022-11-04T08:46:01.525Z,13.10
2022-11-04T08:48:28.161Z,13.00
2022-11-04T08:50:58.177Z,13.00
2022-11-04T08:53:25.212Z,13.00
2022-11-04T08:55:51.780Z,13.10
2022-11-04T08:58:18.744Z,13.20
2022-11-04T09:00:45.222Z,13.10
2022-11-04T09:03:11.983Z,13.10
2022-11-04T09:05:44.237Z,13.10
2022-11-04T09:08:16.071Z,13.00
2022-11-04T09:10:45.251Z,13.00
2022-11-04T09:13:13.083Z,13.00
2022-11-04T09:15:41.529Z,13.00
2022-11-04T09:18:08.124Z,13.00
2022-11-04T09:20:37.726Z,13.10
2022-11-04T09:23:05.182Z,13.00
2022-11-04T09:25:32.396Z,13.00
2022-11-04T09:27:59.623Z,13.10
2022-11-04T09:30:26.395Z,13.10
2022-11-04T09:32:53.130Z,13.10
2022-11-04T09:35:19.749Z,13.10
2022-11-04T09:37:46.338Z,13.30
2022-11-04T09:40:18.899Z,13.30
2022-11-04T09:45:30.720Z,13.30
2022-11-04T09:48:15.027Z,13.10
2022-11-04T09:50:50.259Z,13.10
2022-11-04T09:54:22.582Z,13.10
2022-11-04T09:56:52.309Z,13.10
2022-11-04T09:59:34.423Z,13.20
2022-11-04T10:02:44.890Z,13.20
2022-11-04T10:07:37.001Z,13.30
2022-11-04T10:11:43.813Z,13.20
2022-11-04T10:17:34.698Z,13.00
2022-11-04T10:23:31.501Z,13.00
2022-11-04T10:27:36.017Z,13.10
2022-11-04T10:30:15.053Z,13.10
2022-11-04T10:33:40.970Z,13.10
2022-11-04T10:36:14.694Z,13.00
2022-11-04T10:38:54.088Z,13.00
2022-11-04T10:41:42.705Z,13.10
2022-11-04T10:44:28.835Z,13.20
2022-11-04T10:51:57.199Z,13.10
2022-11-04T10:54:26.801Z,13.10
2022-11-04T10:56:55.849Z,13.10
2022-11-04T11:00:14.400Z,13.00
2022-11-04T11:02:46.816Z,13.00
2022-11-04T11:05:46.835Z,13.10
2022-11-04T11:08:33.328Z,13.20
2022-11-04T11:11:00.125Z,13.10
2022-11-04T11:13:35.349Z,13.10
2022-11-04T11:16:16.510Z,13.10
2022-11-04T11:18:43.045Z,13.10
2022-11-04T11:21:22.559Z,13.10
2022-11-04T11:23:50.559Z,13.20
2022-11-04T11:26:29.922Z,13.30
2022-11-04T11:29:01.687Z,13.20
2022-11-04T11:31:38.432Z,13.20
2022-11-04T11:34:20.425Z,13.20
2022-11-04T11:36:47.940Z,13.20
2022-11-04T11:39:22.297Z,13.20
2022-11-04T11:42:06.992Z,13.10
2022-11-04T11:44:47.398Z,13.00
2022-11-04T11:47:37.467Z,13.00
2022-11-04T11:50:27.875Z,13.00
2022-11-04T11:53:18.913Z,13.20
2022-11-04T11:56:09.515Z,13.00
2022-11-04T12:02:27.993Z,12.90
2022-11-04T12:14:25.558Z,13.20
2022-11-04T12:19:19.935Z,13.20
2022-11-04T12:23:12.987Z,13.10
2022-11-04T12:27:58.444Z,13.20
2022-11-04T12:30:32.317Z,13.10
2022-11-04T12:36:18.789Z,13.10
2022-11-04T12:42:32.442Z,13.20
2022-11-04T12:47:14.782Z,13.10
2022-11-04T12:50:05.716Z,13.00
2022-11-04T12:53:18.653Z,13.00
2022-11-04T12:56:16.935Z,13.00
2022-11-04T13:00:40.724Z,13.00
2022-11-04T13:03:20.659Z,12.90
2022-11-04T13:06:14.943Z,12.90
2022-11-04T13:08:53.981Z,12.80
2022-11-04T13:11:41.234Z,12.80
2022-11-04T13:14:29.369Z,12.80
2022-11-04T13:17:06.830Z,12.50
2022-11-04T13:19:47.892Z,12.30
2022-11-04T13:22:25.809Z,12.30
2022-11-04T13:25:44.409Z,12.30
2022-11-04T13:28:14.441Z,12.30
2022-11-04T13:31:47.319Z,12.30
2022-11-04T13:35:03.380Z,12.20
2022-11-04T13:38:11.833Z,12.20
2022-11-04T13:42:37.397Z,12.10
2022-11-04T13:45:18.015Z,11.90
2022-11-04T13:47:57.829Z,11.50
2022-11-04T13:50:40.870Z,11.30
2022-11-04T13:53:11.086Z,11.40
2022-11-04T13:55:50.206Z,11.40
2022-11-04T13:58:27.310Z,11.40
2022-11-04T14:01:26.975Z,11.20
2022-11-04T14:04:41.197Z,11.20
2022-11-04T14:07:11.869Z,11.10
2022-11-04T14:12:54.487Z,11.00
2022-11-04T14:19:12.294Z,10.90
2022-11-04T14:22:09.125Z,11.10
2022-11-04T14:24:35.659Z,11.30
2022-11-04T14:27:02.870Z,11.30
2022-11-04T14:29:29.357Z,11.40
2022-11-04T14:31:59.902Z,11.50
2022-11-04T14:34:42.870Z,11.50
2022-11-04T14:37:42.820Z,11.70
2022-11-04T14:40:43.500Z,11.70
2022-11-04T14:43:31.281Z,11.80
2022-11-04T14:46:00.968Z,11.80
2022-11-04T14:48:29.157Z,11.90
2022-11-04T14:50:57.239Z,11.80
2022-11-04T14:53:34.008Z,11.70
2022-11-04T14:56:33.968Z,11.60
2022-11-04T14:59:06.448Z,11.60
2022-11-04T15:01:37.975Z,11.60
2022-11-04T15:04:24.429Z,11.50
2022-11-04T15:07:03.927Z,11.50
2022-11-04T15:09:34.836Z,11.40
2022-11-04T15:12:32.014Z,11.20
2022-11-04T15:14:59.570Z,11.20
2022-11-04T15:17:32.337Z,11.30
2022-11-04T15:20:03.939Z,11.10
2022-11-04T15:22:30.614Z,10.90
2022-11-04T15:25:05.064Z,10.90
2022-11-04T15:27:33.609Z,10.90
2022-11-04T15:30:03.279Z,10.80
2022-11-04T15:32:30.163Z,10.60
2022-11-04T15:34:57.518Z,10.50
2022-11-04T15:37:25.860Z,10.50
2022-11-04T15:39:57.476Z,10.50
2022-11-04T15:42:44.726Z,10.30
2022-11-04T15:46:18.778Z,10.40
2022-11-04T15:49:06.589Z,10.40
2022-11-04T15:51:42.839Z,10.50
2022-11-04T15:54:28.858Z,10.50
2022-11-04T15:57:00.166Z,10.40
2022-11-04T15:59:34.787Z,10.30
2022-11-04T16:02:05.416Z,10.10
2022-11-04T16:04:33.003Z,10.00
2022-11-04T16:07:39.219Z,9.80
2022-11-04T16:10:36.245Z,9.80
2022-11-04T16:14:56.940Z,9.70
2022-11-04T16:17:24.884Z,9.70
2022-11-04T16:19:58.090Z,9.70
2022-11-04T16:22:46.271Z,9.70
2022-11-04T16:25:22.894Z,9.50
2022-11-04T16:27:50.382Z,9.50
2022-11-04T16:30:22.597Z,9.60
2022-11-04T16:32:55.147Z,9.60
2022-11-04T16:35:27.505Z,9.50
2022-11-04T16:37:55.805Z,9.40
2022-11-04T16:40:24.240Z,9.30
2022-11-04T16:42:52.465Z,9.10
2022-11-04T16:45:45.588Z,9.00
2022-11-04T16:48:20.345Z,9.00
2022-11-04T16:50:48.165Z,9.00
2022-11-04T16:53:14.627Z,9.00
2022-11-04T16:55:43.635Z,9.00
2022-11-04T16:58:17.222Z,9.00
2022-11-04T17:00:43.752Z,9.00
2022-11-04T17:03:22.275Z,8.90
2022-11-04T17:05:55.714Z,8.90
2022-11-04T17:08:24.177Z,8.90
2022-11-04T17:10:50.716Z,8.90
2022-11-04T17:13:17.252Z,8.90
2022-11-04T17:15:43.740Z,8.70
2022-11-04T17:18:15.671Z,8.70
2022-11-04T17:20:47.342Z,8.70
2022-11-04T17:23:15.063Z,8.80
2022-11-04T17:25:42.316Z,8.80
2022-11-04T17:28:09.073Z,8.70
2022-11-04T17:30:36.268Z,8.70
2022-11-04T17:33:07.003Z,8.70
2022-11-04T17:35:41.093Z,8.60
2022-11-04T17:38:09.415Z,8.50
2022-11-04T17:42:39.293Z,8.60
2022-11-04T17:45:06.428Z,8.70
2022-11-04T17:47:37.550Z,8.80
2022-11-04T17:50:09.020Z,8.80
2022-11-04T17:52:36.663Z,8.70
2022-11-04T17:55:04.481Z,8.70
2022-11-04T17:57:33.294Z,8.50
2022-11-04T17:59:59.865Z,8.50
2022-11-04T18:02:26.533Z,8.50
2022-11-04T18:04:53.076Z,8.40
2022-11-04T18:07:19.566Z,8.40
2022-11-04T18:09:46.101Z,8.30
2022-11-04T18:12:30.685Z,8.40
2022-11-04T18:14:57.165Z,8.40
2022-11-04T18:17:24.170Z,8.40
2022-11-04T18:19:51.952Z,8.40
2022-11-04T18:22:19.025Z,8.40
2022-11-04T18:24:47.139Z,8.40
2022-11-04T18:27:15.028Z,8.30
2022-11-04T18:29:41.542Z,8.20
2022-11-04T18:32:08.044Z,8.30
2022-11-04T18:34:34.961Z,8.40
2022-11-04T18:37:01.430Z,8.20
2022-11-04T18:39:27.914Z,8.20
2022-11-04T18:41:54.404Z,8.00
2022-11-04T18:44:22.658Z,8.00
2022-11-04T18:46:49.767Z,7.90
2022-11-04T18:49:17.461Z,7.90
2022-11-04T18:51:44.008Z,8.00
2022-11-04T18:54:12.001Z,8.00
2022-11-04T18:56:39.034Z,8.00
2022-11-04T18:59:12.259Z,8.00
2022-11-04T19:01:39.374Z,7.90
2022-11-04T19:04:06.541Z,7.90
2022-11-04T19:06:39.497Z,7.90
2022-11-04T19:09:40.088Z,7.90
2022-11-04T19:12:30.021Z,7.90
2022-11-04T19:14:56.532Z,7.90
2022-11-04T19:17:23.017Z,7.60
2022-11-04T19:19:50.651Z,7.70
2022-11-04T19:22:17.169Z,7.60
2022-11-04T19:24:43.631Z,7.70
2022-11-04T19:27:10.132Z,7.70
2022-11-04T19:29:36.612Z,7.70
2022-11-04T19:32:03.400Z,7.60
2022-11-04T19:34:29.904Z,7.50
2022-11-04T19:36:56.389Z,7.40
2022-11-04T19:39:22.924Z,7.30
2022-11-04T19:42:07.737Z,7.40
2022-11-04T19:44:34.274Z,7.50
2022-11-04T19:47:00.734Z,7.50
2022-11-04T19:49:30.673Z,7.60
2022-11-04T19:51:58.536Z,7.50
2022-11-04T19:54:25.087Z,7.40
2022-11-04T19:56:52.443Z,7.50
2022-11-04T19:59:18.961Z,7.40
2022-11-04T20:01:45.544Z,7.40
2022-11-04T20:04:12.627Z,7.30
2022-11-04T20:06:39.176Z,7.20
2022-11-04T20:09:08.881Z,7.30
2022-11-04T20:11:59.306Z,7.00
2022-11-04T20:14:27.717Z,7.00
2022-11-04T20:16:54.587Z,7.00
2022-11-04T20:19:22.876Z,7.10
2022-11-04T20:21:49.812Z,7.10
2022-11-04T20:24:16.309Z,7.00
2022-11-04T20:26:43.379Z,7.10
2022-11-04T20:29:11.095Z,6.80
2022-11-04T20:31:38.571Z,6.80
2022-11-04T20:34:08.465Z,6.80
2022-11-04T20:36:36.753Z,6.80
2022-11-04T20:39:18.907Z,6.80
2022-11-04T20:41:46.385Z,6.90
2022-11-04T20:44:14.873Z,6.90
2022-11-04T20:46:42.479Z,6.90
2022-11-04T20:49:09.362Z,7.00
2022-11-04T20:51:45.466Z,6.90
2022-11-04T20:54:14.840Z,6.90
2022-11-04T20:56:43.351Z,6.80
2022-11-04T20:59:13.033Z,6.60
2022-11-04T21:01:43.685Z,6.40
2022-11-04T21:04:14.412Z,6.30
2022-11-04T21:06:42.067Z,6.30
2022-11-04T21:09:13.448Z,6.40
2022-11-04T21:11:40.696Z,6.40
2022-11-04T21:14:10.852Z,6.40
2022-11-04T21:16:37.323Z,6.10
2022-11-04T21:19:04.976Z,6.10
2022-11-04T21:21:32.532Z,6.20
2022-11-04T21:24:05.059Z,6.20
2022-11-04T21:26:34.709Z,6.20
2022-11-04T21:29:05.603Z,6.10
2022-11-04T21:31:34.571Z,6.00
2022-11-04T21:34:02.785Z,5.80
2022-11-04T21:36:29.606Z,5.80
2022-11-04T21:38:58.277Z,5.80
2022-11-04T21:41:27.855Z,5.90
2022-11-04T21:44:00.307Z,5.80
2022-11-04T21:46:30.507Z,6.00
2022-11-04T21:48:58.017Z,5.90
2022-11-04T21:51:31.127Z,6.00
2022-11-04T21:53:59.703Z,6.00
2022-11-04T21:56:32.182Z,6.00
2022-11-04T21:58:59.813Z,6.10
2022-11-04T22:01:28.804Z,6.20
2022-11-04T22:03:58.994Z,6.10
2022-11-04T22:06:34.015Z,5.90
2022-11-04T22:09:03.950Z,6.00
2022-11-04T22:11:35.561Z,5.90
2022-11-04T22:14:05.146Z,5.90
2022-11-04T22:16:34.651Z,5.90
2022-11-04T22:19:03.884Z,5.90
2022-11-04T22:21:31.749Z,6.00
2022-11-04T22:23:59.898Z,5.80
2022-11-04T22:26:30.324Z,5.70
2022-11-04T22:28:57.275Z,5.70
2022-11-04T22:31:30.397Z,5.60
2022-11-04T22:33:57.850Z,5.70
2022-11-04T22:36:25.226Z,5.70
2022-11-04T22:38:51.742Z,5.70
2022-11-04T22:41:22.037Z,5.60
2022-11-04T22:43:48.688Z,5.70
2022-11-04T22:46:28.665Z,5.60
2022-11-04T22:48:55.531Z,5.40
2022-11-04T22:51:22.349Z,5.30
2022-11-04T22:53:57.842Z,5.50
2022-11-04T22:56:25.491Z,5.50
2022-11-04T22:58:53.295Z,5.50
2022-11-04T23:01:19.889Z,5.50
2022-11-04T23:03:52.613Z,5.60
2022-11-04T23:06:19.186Z,5.50
2022-11-04T23:08:45.672Z,5.40
2022-11-04T23:11:43.706Z,5.50
2022-11-04T23:14:35.265Z,5.60
2022-11-04T23:17:21.404Z,5.60
2022-11-04T23:19:50.112Z,5.50
2022-11-04T23:22:34.735Z,5.50
2022-11-04T23:25:08.792Z,5.60
2022-11-04T23:28:10.073Z,5.70
2022-11-04T23:30:41.517Z,5.80
2022-11-04T23:33:11.491Z,5.70
2022-11-04T23:36:03.989Z,5.80
2022-11-04T23:38:31.375Z,5.70
2022-11-04T23:41:20.272Z,5.50
2022-11-04T23:43:46.771Z,5.50
2022-11-04T23:46:31.957Z,5.50
2022-11-04T23:49:16.753Z,5.50
2022-11-04T23:52:01.713Z,5.50
2022-11-04T23:54:46.614Z,5.40
2022-11-04T23:57:36.632Z,5.50
